Main page
METAR-TAF:

METAR-TAF

Airports :

Abadan-Ayatollah Jami International Airport

Abadan, Iran

latitude: 30-22N, longitude: 048-15E, elevation: 3 m

Current weather observation

The report was made 1 hour and 22 minutes ago, at 21:00 UTC
Wind 8 kt from the West/Northwest
Temperature 36°C
Humidity 18%
Pressure 994 hPa
Visibility 10 km or more
no clouds below 1500 m and no cumulonimbus

METAR: OIAA 052100Z 29008KT CAVOK 36/08 Q0994

Time: 02:52 (22:22 UTC)

Forecast

The report was made 4 hours and 52 minutes ago, at 17:30 UTC
Forecast valid from 05 at 18 UTC to 06 at 24 UTC
Wind 10 kt from the West/Northwest
Visibility: 7000 m
Temporary
from 05 at 18 UTC to 06 at 02 UTC
Wind 18 kt from the West/Northwest
Visibility: 4000 m
widespread dust
Temporary
from 06 at 02 UTC to 06 at 08 UTC
Visibility: 4000 m
haze
Temporary
from 06 at 09 UTC to 06 at 18 UTC
Visibility: 3000 m

TAF: OIAA 051730Z 0518/0624 30010KT 7000 NSC TEMPO 0518/0602 30018KT 4000 DU TEMPO 0602/0608 4000 HZ TEMPO 0609/0618 27020 3000 DU/SA

Weather observations and forecasts of more than 4000 airports (METAR and TAF reports).

The available stations are represented by yellow and red dots on the map.

Hover mouse over dot to see the name of the station.

Then click to see weather observations and forecasts.

To change the map : click on the green buttons with a black cross to zoom in, on the green button with a dash to zoom out, or on the green arrows for adjacent maps.


METAR-TAF: